sensor_id;sensor_type;location;lat;lon;timestamp;pressure;altitude;pressure_sealevel;temperature;humidity
45253;BME280;63171;50.520;30.486;2023-03-03T00:00:28;100147.75;;;3.63;81.58
45253;BME280;63171;50.520;30.486;2023-03-03T00:01:19;100147.06;;;3.56;81.53
45253;BME280;63171;50.520;30.486;2023-03-03T00:02:09;100152.09;;;3.63;81.60
45253;BME280;63171;50.520;30.486;2023-03-03T00:03:05;100143.31;;;3.67;81.27
45253;BME280;63171;50.520;30.486;2023-03-03T00:03:56;100151.94;;;3.67;81.38
45253;BME280;63171;50.520;30.486;2023-03-03T00:04:47;100142.31;;;3.71;81.49
45253;BME280;63171;50.520;30.486;2023-03-03T00:05:38;100144.06;;;3.70;81.57
45253;BME280;63171;50.520;30.486;2023-03-03T00:06:29;100141.38;;;3.73;81.90
45253;BME280;63171;50.520;30.486;2023-03-03T00:07:18;100151.94;;;3.67;81.67
45253;BME280;63171;50.520;30.486;2023-03-03T00:08:11;100141.78;;;3.60;81.48
45253;BME280;63171;50.520;30.486;2023-03-03T00:09:01;100139.44;;;3.52;81.19
45253;BME280;63171;50.520;30.486;2023-03-03T00:09:53;100145.41;;;3.54;81.57
45253;BME280;63171;50.520;30.486;2023-03-03T00:10:43;100139.28;;;3.56;81.43
45253;BME280;63171;50.520;30.486;2023-03-03T00:11:33;100150.38;;;3.62;81.78
45253;BME280;63171;50.520;30.486;2023-03-03T00:12:26;100138.22;;;3.64;81.41
45253;BME280;63171;50.520;30.486;2023-03-03T00:13:17;100138.41;;;3.58;81.40
45253;BME280;63171;50.520;30.486;2023-03-03T00:14:17;100135.84;;;3.56;81.73
45253;BME280;63171;50.520;30.486;2023-03-03T00:15:14;100136.75;;;3.55;81.39
45253;BME280;63171;50.520;30.486;2023-03-03T00:16:13;100127.53;;;3.45;81.13
45253;BME280;63171;50.520;30.486;2023-03-03T00:17:21;100136.00;;;3.51;81.43
45253;BME280;63171;50.520;30.486;2023-03-03T00:18:20;100132.66;;;3.48;81.33
45253;BME280;63171;50.520;30.486;2023-03-03T00:19:13;100126.53;;;3.50;81.65
45253;BME280;63171;50.520;30.486;2023-03-03T00:20:29;100122.38;;;3.45;81.19
45253;BME280;63171;50.520;30.486;2023-03-03T00:21:28;100122.31;;;3.46;81.49
45253;BME280;63171;50.520;30.486;2023-03-03T00:22:26;100121.47;;;3.46;81.32
45253;BME280;63171;50.520;30.486;2023-03-03T00:23:23;100126.03;;;3.38;81.47
45253;BME280;63171;50.520;30.486;2023-03-03T00:24:18;100115.69;;;3.38;81.91
45253;BME280;63171;50.520;30.486;2023-03-03T00:25:26;100126.84;;;3.40;81.51
45253;BME280;63171;50.520;30.486;2023-03-03T00:26:20;100121.66;;;3.40;81.54
45253;BME280;63171;50.520;30.486;2023-03-03T00:27:18;100118.00;;;3.47;81.55
45253;BME280;63171;50.520;30.486;2023-03-03T00:28:22;100118.19;;;3.41;81.83
45253;BME280;63171;50.520;30.486;2023-03-03T00:29:30;100120.03;;;3.37;81.71
45253;BME280;63171;50.520;30.486;2023-03-03T00:30:23;100117.59;;;3.31;81.85
45253;BME280;63171;50.520;30.486;2023-03-03T00:31:16;100118.19;;;3.41;81.60
45253;BME280;63171;50.520;30.486;2023-03-03T00:32:21;100115.78;;;3.35;81.57
45253;BME280;63171;50.520;30.486;2023-03-03T00:33:21;100117.72;;;3.26;81.58
45253;BME280;63171;50.520;30.486;2023-03-03T00:34:22;100113.50;;;3.24;81.49
45253;BME280;63171;50.520;30.486;2023-03-03T00:35:23;100111.63;;;3.29;81.61
45253;BME280;63171;50.520;30.486;2023-03-03T00:36:30;100112.72;;;3.20;81.28
45253;BME280;63171;50.520;30.486;2023-03-03T00:37:28;100108.72;;;3.10;81.15
45253;BME280;63171;50.520;30.486;2023-03-03T00:38:19;100116.28;;;3.16;81.82
45253;BME280;63171;50.520;30.486;2023-03-03T00:39:18;100116.00;;;3.27;81.71
45253;BME280;63171;50.520;30.486;2023-03-03T00:40:20;100107.94;;;3.38;82.18
45253;BME280;63171;50.520;30.486;2023-03-03T00:41:15;100112.06;;;3.43;82.43
45253;BME280;63171;50.520;30.486;2023-03-03T00:42:11;100109.03;;;3.29;82.09
45253;BME280;63171;50.520;30.486;2023-03-03T00:43:16;100106.56;;;3.24;82.13
45253;BME280;63171;50.520;30.486;2023-03-03T00:44:39;100108.66;;;3.12;81.73
45253;BME280;63171;50.520;30.486;2023-03-03T00:45:33;100100.91;;;3.12;81.94
45253;BME280;63171;50.520;30.486;2023-03-03T00:46:29;100111.00;;;3.19;82.20
45253;BME280;63171;50.520;30.486;2023-03-03T00:47:25;100102.94;;;3.30;82.12
45253;BME280;63171;50.520;30.486;2023-03-03T00:48:24;100107.81;;;3.41;82.32
45253;BME280;63171;50.520;30.486;2023-03-03T00:49:21;100098.47;;;3.37;82.25
45253;BME280;63171;50.520;30.486;2023-03-03T00:50:31;100097.56;;;3.38;82.25
45253;BME280;63171;50.520;30.486;2023-03-03T00:51:26;100105.44;;;3.35;82.65
45253;BME280;63171;50.520;30.486;2023-03-03T00:52:17;100096.78;;;3.36;82.70
45253;BME280;63171;50.520;30.486;2023-03-03T00:53:10;100096.53;;;3.43;82.63
45253;BME280;63171;50.520;30.486;2023-03-03T00:54:02;100097.31;;;3.45;82.85
45253;BME280;63171;50.520;30.486;2023-03-03T00:54:52;100095.06;;;3.35;82.91
45253;BME280;63171;50.520;30.486;2023-03-03T00:55:44;100083.03;;;3.32;82.33
45253;BME280;63171;50.520;30.486;2023-03-03T00:56:35;100093.34;;;3.35;82.92
45253;BME280;63171;50.520;30.486;2023-03-03T00:57:27;100098.72;;;3.28;82.28
45253;BME280;63171;50.520;30.486;2023-03-03T00:58:18;100084.94;;;3.27;82.76
45253;BME280;63171;50.520;30.486;2023-03-03T00:59:10;100089.41;;;3.22;82.82
45253;BME280;63171;50.520;30.486;2023-03-03T01:00:00;100087.41;;;3.30;82.85
45253;BME280;63171;50.520;30.486;2023-03-03T01:02:58;100090.50;;;3.13;82.80
45253;BME280;63171;50.520;30.486;2023-03-03T01:03:51;100091.22;;;3.18;82.70
45253;BME280;63171;50.520;30.486;2023-03-03T01:04:42;100086.41;;;3.05;82.87
45253;BME280;63171;50.520;30.486;2023-03-03T01:05:35;100074.59;;;2.96;82.73
45253;BME280;63171;50.520;30.486;2023-03-03T01:06:26;100077.19;;;2.96;82.52
45253;BME280;63171;50.520;30.486;2023-03-03T01:07:17;100084.56;;;3.10;82.95
45253;BME280;63171;50.520;30.486;2023-03-03T01:08:07;100086.03;;;3.18;82.90
45253;BME280;63171;50.520;30.486;2023-03-03T01:08:57;100080.34;;;3.06;82.63
45253;BME280;63171;50.520;30.486;2023-03-03T01:09:48;100082.09;;;3.05;82.97
45253;BME280;63171;50.520;30.486;2023-03-03T01:10:42;100080.16;;;3.13;83.01
45253;BME280;63171;50.520;30.486;2023-03-03T01:11:33;100080.06;;;3.16;82.80
45253;BME280;63171;50.520;30.486;2023-03-03T01:12:24;100078.84;;;3.28;83.43
45253;BME280;63171;50.520;30.486;2023-03-03T01:13:14;100079.00;;;3.23;83.67
45253;BME280;63171;50.520;30.486;2023-03-03T01:14:04;100075.63;;;3.21;83.23
45253;BME280;63171;50.520;30.486;2023-03-03T01:14:55;100075.69;;;3.18;83.12
45253;BME280;63171;50.520;30.486;2023-03-03T01:15:45;100080.06;;;3.16;82.88
45253;BME280;63171;50.520;30.486;2023-03-03T01:16:36;100080.16;;;3.13;83.20
45253;BME280;63171;50.520;30.486;2023-03-03T01:17:28;100073.81;;;3.23;83.41
45253;BME280;63171;50.520;30.486;2023-03-03T01:18:20;100069.50;;;3.24;83.26
45253;BME280;63171;50.520;30.486;2023-03-03T01:19:10;100072.00;;;3.27;83.27
45253;BME280;63171;50.520;30.486;2023-03-03T01:20:01;100071.09;;;3.28;83.49
45253;BME280;63171;50.520;30.486;2023-03-03T01:20:51;100066.81;;;3.27;83.37
45253;BME280;63171;50.520;30.486;2023-03-03T01:21:41;100071.19;;;3.25;83.63
45253;BME280;63171;50.520;30.486;2023-03-03T01:22:31;100068.59;;;3.25;83.67
45253;BME280;63171;50.520;30.486;2023-03-03T01:23:20;100069.53;;;3.22;83.74
45253;BME280;63171;50.520;30.486;2023-03-03T01:24:11;100066.00;;;3.25;83.78
45253;BME280;63171;50.520;30.486;2023-03-03T01:25:01;100067.91;;;3.18;83.26
45253;BME280;63171;50.520;30.486;2023-03-03T01:25:53;100070.25;;;3.28;83.51
45253;BME280;63171;50.520;30.486;2023-03-03T01:26:45;100070.34;;;3.24;83.44
45253;BME280;63171;50.520;30.486;2023-03-03T01:27:36;100058.16;;;3.28;83.75
45253;BME280;63171;50.520;30.486;2023-03-03T01:28:26;100058.91;;;3.32;83.68
45253;BME280;63171;50.520;30.486;2023-03-03T01:29:16;100066.00;;;3.25;83.49
45253;BME280;63171;50.520;30.486;2023-03-03T01:30:07;100060.84;;;3.25;83.36
45253;BME280;63171;50.520;30.486;2023-03-03T01:30:59;100055.47;;;3.31;83.54
45253;BME280;63171;50.520;30.486;2023-03-03T01:31:49;100059.69;;;3.35;83.62
45253;BME280;63171;50.520;30.486;2023-03-03T01:32:40;100063.28;;;3.30;83.41
45253;BME280;63171;50.520;30.486;2023-03-03T01:33:30;100059.78;;;3.31;83.86
45253;BME280;63171;50.520;30.486;2023-03-03T01:34:21;100056.47;;;3.27;83.51
45253;BME280;63171;50.520;30.486;2023-03-03T01:35:11;100055.59;;;3.26;84.00
45253;BME280;63171;50.520;30.486;2023-03-03T01:36:01;100049.63;;;3.24;83.77
45253;BME280;63171;50.520;30.486;2023-03-03T01:36:51;100053.81;;;3.29;83.61
45253;BME280;63171;50.520;30.486;2023-03-03T01:37:42;100048.69;;;3.27;83.53
45253;BME280;63171;50.520;30.486;2023-03-03T01:38:34;100043.66;;;3.22;83.77
45253;BME280;63171;50.520;30.486;2023-03-03T01:39:24;100043.06;;;3.13;83.73
45253;BME280;63171;50.520;30.486;2023-03-03T01:40:16;100052.56;;;3.12;83.61
45253;BME280;63171;50.520;30.486;2023-03-03T01:41:07;100050.59;;;3.20;83.70
45253;BME280;63171;50.520;30.486;2023-03-03T01:41:58;100044.56;;;3.21;83.74
45253;BME280;63171;50.520;30.486;2023-03-03T01:42:49;100044.66;;;3.17;83.99
45253;BME280;63171;50.520;30.486;2023-03-03T01:43:43;100049.75;;;3.21;83.85
45253;BME280;63171;50.520;30.486;2023-03-03T01:44:34;100047.91;;;3.25;83.96
45253;BME280;63171;50.520;30.486;2023-03-03T01:45:26;100053.81;;;3.29;83.90
45253;BME280;63171;50.520;30.486;2023-03-03T01:46:40;100049.44;;;3.31;83.55
45253;BME280;63171;50.520;30.486;2023-03-03T01:47:33;100043.41;;;3.30;83.98
45253;BME280;63171;50.520;30.486;2023-03-03T01:48:27;100047.06;;;3.24;83.48
45253;BME280;63171;50.520;30.486;2023-03-03T01:49:21;100053.19;;;3.20;83.74
45253;BME280;63171;50.520;30.486;2023-03-03T01:50:14;100052.31;;;3.21;83.87
45253;BME280;63171;50.520;30.486;2023-03-03T01:51:14;100043.06;;;3.13;83.83
45253;BME280;63171;50.520;30.486;2023-03-03T01:52:12;100041.59;;;3.04;83.53
45253;BME280;63171;50.520;30.486;2023-03-03T01:53:04;100042.47;;;3.03;83.50
45253;BME280;63171;50.520;30.486;2023-03-03T01:53:57;100043.66;;;2.91;83.34
45253;BME280;63171;50.520;30.486;2023-03-03T01:54:51;100040.03;;;2.99;83.61
45253;BME280;63171;50.520;30.486;2023-03-03T01:55:46;100035.47;;;3.08;83.49
45253;BME280;63171;50.520;30.486;2023-03-03T01:56:36;100035.31;;;3.13;83.54
45253;BME280;63171;50.520;30.486;2023-03-03T01:57:30;100038.75;;;3.13;84.04
45253;BME280;63171;50.520;30.486;2023-03-03T01:58:25;100036.16;;;3.13;84.00
45253;BME280;63171;50.520;30.486;2023-03-03T01:59:23;100036.91;;;3.17;84.27
45253;BME280;63171;50.520;30.486;2023-03-03T02:00:16;100028.19;;;3.19;83.72
45253;BME280;63171;50.520;30.486;2023-03-03T02:01:10;100033.31;;;3.22;84.04
45253;BME280;63171;50.520;30.486;2023-03-03T02:02:02;100038.44;;;3.24;83.76
45253;BME280;63171;50.520;30.486;2023-03-03T02:02:53;100033.47;;;3.16;83.70
45253;BME280;63171;50.520;30.486;2023-03-03T02:03:44;100035.06;;;3.20;84.23
45253;BME280;63171;50.520;30.486;2023-03-03T02:04:34;100028.94;;;3.24;83.97
45253;BME280;63171;50.520;30.486;2023-03-03T02:05:24;100036.84;;;3.18;84.07
45253;BME280;63171;50.520;30.486;2023-03-03T02:06:18;100038.44;;;3.24;84.26
45253;BME280;63171;50.520;30.486;2023-03-03T02:07:10;100032.16;;;3.31;84.56
45253;BME280;63171;50.520;30.486;2023-03-03T02:08:01;100026.03;;;3.35;84.23
45253;BME280;63171;50.520;30.486;2023-03-03T02:08:53;100018.22;;;3.37;84.41
45253;BME280;63171;50.520;30.486;2023-03-03T02:09:53;100027.72;;;3.36;84.19
45253;BME280;63171;50.520;30.486;2023-03-03T02:10:43;100028.03;;;3.25;84.35
45253;BME280;63171;50.520;30.486;2023-03-03T02:11:37;100032.00;;;3.37;84.49
45253;BME280;63171;50.520;30.486;2023-03-03T02:12:33;100020.81;;;3.37;84.79
45253;BME280;63171;50.520;30.486;2023-03-03T02:13:25;100027.28;;;3.22;84.10
45253;BME280;63171;50.520;30.486;2023-03-03T02:14:17;100021.38;;;3.17;84.32
45253;BME280;63171;50.520;30.486;2023-03-03T02:15:19;100026.50;;;3.18;84.55
45253;BME280;63171;50.520;30.486;2023-03-03T02:16:09;100029.03;;;3.20;84.26
45253;BME280;63171;50.520;30.486;2023-03-03T02:17:00;100023.91;;;3.18;84.28
45253;BME280;63171;50.520;30.486;2023-03-03T02:17:53;100021.25;;;3.21;84.33
45253;BME280;63171;50.520;30.486;2023-03-03T02:18:44;100029.88;;;3.22;84.11
45253;BME280;63171;50.520;30.486;2023-03-03T02:19:42;100026.19;;;3.29;84.40
45253;BME280;63171;50.520;30.486;2023-03-03T02:20:47;100016.63;;;3.31;84.46
45253;BME280;63171;50.520;30.486;2023-03-03T02:21:37;100017.63;;;3.27;84.53
45253;BME280;63171;50.520;30.486;2023-03-03T02:22:33;100012.31;;;3.32;84.74
45253;BME280;63171;50.520;30.486;2023-03-03T02:23:29;100015.75;;;3.32;84.68
45253;BME280;63171;50.520;30.486;2023-03-03T02:24:24;100011.50;;;3.30;84.29
45253;BME280;63171;50.520;30.486;2023-03-03T02:25:23;100012.69;;;3.19;84.20
45253;BME280;63171;50.520;30.486;2023-03-03T02:26:23;100019.59;;;3.19;84.33
45253;BME280;63171;50.520;30.486;2023-03-03T02:27:19;100014.34;;;3.22;84.45
45253;BME280;63171;50.520;30.486;2023-03-03T02:28:10;100017.59;;;3.29;84.79
45253;BME280;63171;50.520;30.486;2023-03-03T02:29:00;100014.91;;;3.32;84.93
45253;BME280;63171;50.520;30.486;2023-03-03T02:29:51;100012.34;;;3.30;84.73
45253;BME280;63171;50.520;30.486;2023-03-03T02:30:42;100009.88;;;3.27;84.51
45253;BME280;63171;50.520;30.486;2023-03-03T02:31:33;100010.56;;;3.32;84.69
45253;BME280;63171;50.520;30.486;2023-03-03T02:32:24;100019.19;;;3.33;84.39
45253;BME280;63171;50.520;30.486;2023-03-03T02:33:14;100005.44;;;3.31;84.63
45253;BME280;63171;50.520;30.486;2023-03-03T02:34:04;100005.53;;;3.28;84.60
45253;BME280;63171;50.520;30.486;2023-03-03T02:34:54;100009.38;;;3.14;84.47
45253;BME280;63171;50.520;30.486;2023-03-03T02:35:46;100009.19;;;3.22;84.30
45253;BME280;63171;50.520;30.486;2023-03-03T02:36:38;100007.91;;;3.06;84.14
45253;BME280;63171;50.520;30.486;2023-03-03T02:37:28;100009.69;;;3.04;84.59
45253;BME280;63171;50.520;30.486;2023-03-03T02:38:21;100013.72;;;3.14;84.42
45253;BME280;63171;50.520;30.486;2023-03-03T02:39:15;100006.69;;;3.17;84.86
45253;BME280;63171;50.520;30.486;2023-03-03T02:40:09;100007.25;;;2.99;84.56
45253;BME280;63171;50.520;30.486;2023-03-03T02:41:06;100007.34;;;2.96;84.50
45253;BME280;63171;50.520;30.486;2023-03-03T02:42:05;100010.50;;;3.06;84.51
45253;BME280;63171;50.520;30.486;2023-03-03T02:43:04;100015.50;;;3.12;84.97
45253;BME280;63171;50.520;30.486;2023-03-03T02:43:58;100009.28;;;3.17;84.60
45253;BME280;63171;50.520;30.486;2023-03-03T02:44:50;100010.97;;;3.18;84.93
45253;BME280;63171;50.520;30.486;2023-03-03T02:45:42;99997.88;;;3.24;84.74
45253;BME280;63171;50.520;30.486;2023-03-03T02:46:35;100007.97;;;3.32;84.76
45253;BME280;63171;50.520;30.486;2023-03-03T02:47:28;100007.13;;;3.32;85.15
45253;BME280;63171;50.520;30.486;2023-03-03T02:48:17;100010.72;;;3.28;84.94
45253;BME280;63171;50.520;30.486;2023-03-03T02:49:10;100000.25;;;3.31;84.91
45253;BME280;63171;50.520;30.486;2023-03-03T02:50:01;99998.63;;;3.28;85.04
45253;BME280;63171;50.520;30.486;2023-03-03T02:50:51;99998.56;;;3.30;84.94
45253;BME280;63171;50.520;30.486;2023-03-03T02:51:42;100003.91;;;3.25;85.09
45253;BME280;63171;50.520;30.486;2023-03-03T02:52:31;99998.88;;;3.19;84.96
45253;BME280;63171;50.520;30.486;2023-03-03T02:53:22;100001.41;;;3.22;85.34
45253;BME280;63171;50.520;30.486;2023-03-03T02:54:13;99998.72;;;3.25;84.97
45253;BME280;63171;50.520;30.486;2023-03-03T02:55:06;99998.56;;;3.30;84.99
45253;BME280;63171;50.520;30.486;2023-03-03T02:55:56;100000.25;;;3.31;85.14
45253;BME280;63171;50.520;30.486;2023-03-03T02:56:47;100001.06;;;3.33;85.39
45253;BME280;63171;50.520;30.486;2023-03-03T02:57:38;99998.31;;;3.39;85.07
45253;BME280;63171;50.520;30.486;2023-03-03T02:58:28;99999.16;;;3.39;85.18
45253;BME280;63171;50.520;30.486;2023-03-03T02:59:19;99998.53;;;3.31;85.23
45253;BME280;63171;50.520;30.486;2023-03-03T03:00:12;99998.56;;;3.30;85.01
45253;BME280;63171;50.520;30.486;2023-03-03T03:01:03;99999.25;;;3.36;85.47
45253;BME280;63171;50.520;30.486;2023-03-03T03:01:53;100001.00;;;3.36;85.19
45253;BME280;63171;50.520;30.486;2023-03-03T03:02:45;100000.78;;;3.42;85.44
45253;BME280;63171;50.520;30.486;2023-03-03T03:03:35;99996.22;;;3.50;85.60
45253;BME280;63171;50.520;30.486;2023-03-03T03:04:27;99995.44;;;3.48;85.60
45253;BME280;63171;50.520;30.486;2023-03-03T03:05:37;99994.59;;;3.47;85.32
45253;BME280;63171;50.520;30.486;2023-03-03T03:06:27;99994.63;;;3.46;85.14
45253;BME280;63171;50.520;30.486;2023-03-03T03:07:17;99995.03;;;3.32;85.06
45253;BME280;63171;50.520;30.486;2023-03-03T03:08:07;99992.41;;;3.34;85.30
45253;BME280;63171;50.520;30.486;2023-03-03T03:08:58;99983.78;;;3.33;84.96
45253;BME280;63171;50.520;30.486;2023-03-03T03:09:49;99994.44;;;3.24;85.08
45253;BME280;63171;50.520;30.486;2023-03-03T03:10:40;99983.28;;;3.22;85.10
45253;BME280;63171;50.520;30.486;2023-03-03T03:11:30;99991.00;;;3.23;85.20
45253;BME280;63171;50.520;30.486;2023-03-03T03:12:21;99989.22;;;3.25;85.55
45253;BME280;63171;50.520;30.486;2023-03-03T03:13:16;99992.50;;;3.31;85.19
45253;BME280;63171;50.520;30.486;2023-03-03T03:14:09;99988.09;;;3.34;85.22
45253;BME280;63171;50.520;30.486;2023-03-03T03:15:00;99984.88;;;3.26;85.20
45253;BME280;63171;50.520;30.486;2023-03-03T03:15:52;99986.78;;;3.19;85.29
45253;BME280;63171;50.520;30.486;2023-03-03T03:16:42;99980.88;;;3.16;85.53
45253;BME280;63171;50.520;30.486;2023-03-03T03:17:33;99984.31;;;3.16;85.03
45253;BME280;63171;50.520;30.486;2023-03-03T03:18:23;99986.06;;;3.16;84.96
45253;BME280;63171;50.520;30.486;2023-03-03T03:19:15;99989.38;;;3.21;85.28
45253;BME280;63171;50.520;30.486;2023-03-03T03:20:07;99986.47;;;3.30;85.14
45253;BME280;63171;50.520;30.486;2023-03-03T03:21:05;99978.72;;;3.30;85.38
45253;BME280;63171;50.520;30.486;2023-03-03T03:21:55;99976.97;;;3.31;85.59
45253;BME280;63171;50.520;30.486;2023-03-03T03:22:45;99979.56;;;3.31;85.58
45253;BME280;63171;50.520;30.486;2023-03-03T03:23:35;99992.41;;;3.34;85.36
45253;BME280;63171;50.520;30.486;2023-03-03T03:24:26;99988.13;;;3.33;85.16
45253;BME280;63171;50.520;30.486;2023-03-03T03:25:21;99992.69;;;3.24;85.33
45253;BME280;63171;50.520;30.486;2023-03-03T03:26:12;99985.53;;;3.33;85.18
45253;BME280;63171;50.520;30.486;2023-03-03T03:27:02;99991.53;;;3.35;85.44
45253;BME280;63171;50.520;30.486;2023-03-03T03:27:53;99984.34;;;3.43;85.36
45253;BME280;63171;50.520;30.486;2023-03-03T03:28:45;99982.66;;;3.42;85.76
45253;BME280;63171;50.520;30.486;2023-03-03T03:29:35;99977.69;;;3.36;85.21
45253;BME280;63171;50.520;30.486;2023-03-03T03:30:26;99981.25;;;3.32;85.45
45253;BME280;63171;50.520;30.486;2023-03-03T03:31:17;99980.97;;;3.41;85.54
45253;BME280;63171;50.520;30.486;2023-03-03T03:32:08;99979.97;;;3.45;85.96
45253;BME280;63171;50.520;30.486;2023-03-03T03:32:58;99979.34;;;3.38;85.75
45253;BME280;63171;50.520;30.486;2023-03-03T03:33:49;99979.56;;;3.31;85.42
45253;BME280;63171;50.520;30.486;2023-03-03T03:34:40;99976.88;;;3.34;85.49
45253;BME280;63171;50.520;30.486;2023-03-03T03:35:32;99974.94;;;3.40;85.50
45253;BME280;63171;50.520;30.486;2023-03-03T03:36:21;99974.00;;;3.43;85.50
45253;BME280;63171;50.520;30.486;2023-03-03T03:37:12;99971.69;;;3.34;85.74
45253;BME280;63171;50.520;30.486;2023-03-03T03:38:02;99974.91;;;3.42;85.72
45253;BME280;63171;50.520;30.486;2023-03-03T03:38:53;99970.38;;;3.48;85.57
45253;BME280;63171;50.520;30.486;2023-03-03T03:39:42;99969.66;;;3.43;85.35
45253;BME280;63171;50.520;30.486;2023-03-03T03:40:32;99972.25;;;3.43;85.93
45253;BME280;63171;50.520;30.486;2023-03-03T03:41:23;99971.41;;;3.43;85.92
45253;BME280;63171;50.520;30.486;2023-03-03T03:42:13;99969.81;;;3.39;85.88
45253;BME280;63171;50.520;30.486;2023-03-03T03:43:04;99972.41;;;3.39;85.75
45253;BME280;63171;50.520;30.486;2023-03-03T03:43:55;99969.63;;;3.45;85.58
45253;BME280;63171;50.520;30.486;2023-03-03T03:44:47;99965.16;;;3.50;85.76
45253;BME280;63171;50.520;30.486;2023-03-03T03:45:41;99967.88;;;3.45;85.48
45253;BME280;63171;50.520;30.486;2023-03-03T03:46:32;99968.78;;;3.44;85.83
45253;BME280;63171;50.520;30.486;2023-03-03T03:47:22;99961.97;;;3.42;85.80
45253;BME280;63171;50.520;30.486;2023-03-03T03:48:13;99951.50;;;3.45;85.89
45253;BME280;63171;50.520;30.486;2023-03-03T03:49:04;99948.72;;;3.51;85.78
45253;BME280;63171;50.520;30.486;2023-03-03T03:49:54;99954.81;;;3.50;85.43
45253;BME280;63171;50.520;30.486;2023-03-03T03:50:45;99961.97;;;3.42;85.59
45253;BME280;63171;50.520;30.486;2023-03-03T03:51:36;99959.38;;;3.42;85.91
45253;BME280;63171;50.520;30.486;2023-03-03T03:52:30;99963.06;;;3.33;85.33
45253;BME280;63171;50.520;30.486;2023-03-03T03:53:21;99962.22;;;3.33;85.58
45253;BME280;63171;50.520;30.486;2023-03-03T03:54:11;99966.50;;;3.35;85.41
45253;BME280;63171;50.520;30.486;2023-03-03T03:55:04;99967.94;;;3.44;85.60
45253;BME280;63171;50.520;30.486;2023-03-03T03:55:54;99959.22;;;3.46;85.80
45253;BME280;63171;50.520;30.486;2023-03-03T03:56:44;99952.41;;;3.44;85.93
45253;BME280;63171;50.520;30.486;2023-03-03T03:57:34;99955.81;;;3.44;85.65
45253;BME280;63171;50.520;30.486;2023-03-03T03:58:25;99954.00;;;3.48;85.94
45253;BME280;63171;50.520;30.486;2023-03-03T03:59:21;99954.09;;;3.45;85.37
45253;BME280;63171;50.520;30.486;2023-03-03T04:00:13;99954.94;;;3.45;85.32
45253;BME280;63171;50.520;30.486;2023-03-03T04:01:11;99958.34;;;3.47;85.87
45253;BME280;63171;50.520;30.486;2023-03-03T04:02:07;99951.53;;;3.43;85.51
45253;BME280;63171;50.520;30.486;2023-03-03T04:02:57;99946.38;;;3.43;85.79
45253;BME280;63171;50.520;30.486;2023-03-03T04:03:48;99948.84;;;3.46;85.79
45253;BME280;63171;50.520;30.486;2023-03-03T04:04:41;99947.94;;;3.49;85.78
45253;BME280;63171;50.520;30.486;2023-03-03T04:05:32;99946.03;;;3.54;85.57
45253;BME280;63171;50.520;30.486;2023-03-03T04:06:22;99943.50;;;3.52;85.75
45253;BME280;63171;50.520;30.486;2023-03-03T04:07:13;99956.28;;;3.57;85.67
45253;BME280;63171;50.520;30.486;2023-03-03T04:08:03;99943.38;;;3.55;85.71
45253;BME280;63171;50.520;30.486;2023-03-03T04:08:54;99948.41;;;3.60;86.09
45253;BME280;63171;50.520;30.486;2023-03-03T04:09:45;99952.47;;;3.69;85.75
45253;BME280;63171;50.520;30.486;2023-03-03T04:10:36;99950.72;;;3.69;86.09
45253;BME280;63171;50.520;30.486;2023-03-03T04:11:27;99938.78;;;3.65;85.70
45253;BME280;63171;50.520;30.486;2023-03-03T04:12:17;99938.09;;;3.59;85.88
45253;BME280;63171;50.520;30.486;2023-03-03T04:13:07;99939.72;;;3.63;85.62
45253;BME280;63171;50.520;30.486;2023-03-03T04:13:59;99939.78;;;3.60;85.75
45253;BME280;63171;50.520;30.486;2023-03-03T04:14:51;99936.75;;;3.47;85.77
45253;BME280;63171;50.520;30.486;2023-03-03T04:15:42;99933.31;;;3.48;85.75
45253;BME280;63171;50.520;30.486;2023-03-03T04:16:32;99940.22;;;3.47;85.23
45253;BME280;63171;50.520;30.486;2023-03-03T04:17:22;99934.03;;;3.51;85.14
45253;BME280;63171;50.520;30.486;2023-03-03T04:18:13;99930.44;;;3.55;85.44
45253;BME280;63171;50.520;30.486;2023-03-03T04:19:04;99936.34;;;3.61;85.63
45253;BME280;63171;50.520;30.486;2023-03-03T04:19:56;99931.00;;;3.65;85.81
45253;BME280;63171;50.520;30.486;2023-03-03T04:20:48;99936.13;;;3.67;85.47
45253;BME280;63171;50.520;30.486;2023-03-03T04:21:39;99927.63;;;3.63;85.40
45253;BME280;63171;50.520;30.486;2023-03-03T04:22:30;99930.16;;;3.65;85.89
45253;BME280;63171;50.520;30.486;2023-03-03T04:23:23;99933.38;;;3.71;85.78
45253;BME280;63171;50.520;30.486;2023-03-03T04:24:14;99929.44;;;3.60;85.24
45253;BME280;63171;50.520;30.486;2023-03-03T04:25:05;99931.69;;;3.70;85.70
45253;BME280;63171;50.520;30.486;2023-03-03T04:26:01;99929.84;;;3.74;85.81
45253;BME280;63171;50.520;30.486;2023-03-03T04:26:50;99923.84;;;3.72;85.77
45253;BME280;63171;50.520;30.486;2023-03-03T04:27:42;99928.13;;;3.74;85.37
45253;BME280;63171;50.520;30.486;2023-03-03T04:28:33;99933.31;;;3.73;85.43
45253;BME280;63171;50.520;30.486;2023-03-03T04:29:24;99937.56;;;3.75;85.33
45253;BME280;63171;50.520;30.486;2023-03-03T04:30:15;99924.63;;;3.75;85.51
45253;BME280;63171;50.520;30.486;2023-03-03T04:31:09;99926.25;;;3.78;85.43
45253;BME280;63171;50.520;30.486;2023-03-03T04:31:58;99924.50;;;3.78;85.68
45253;BME280;63171;50.520;30.486;2023-03-03T04:32:49;99917.66;;;3.77;85.28
45253;BME280;63171;50.520;30.486;2023-03-03T04:33:42;99915.91;;;3.78;85.84
45253;BME280;63171;50.520;30.486;2023-03-03T04:34:33;99918.78;;;3.69;85.59
45253;BME280;63171;50.520;30.486;2023-03-03T04:35:23;99915.34;;;3.68;85.47
45253;BME280;63171;50.520;30.486;2023-03-03T04:36:14;99915.09;;;3.76;85.64
45253;BME280;63171;50.520;30.486;2023-03-03T04:37:05;99917.69;;;3.76;85.35
45253;BME280;63171;50.520;30.486;2023-03-03T04:37:55;99917.59;;;3.79;85.45
45253;BME280;63171;50.520;30.486;2023-03-03T04:38:46;99916.53;;;3.84;85.36
45253;BME280;63171;50.520;30.486;2023-03-03T04:39:37;99909.59;;;3.85;85.31
45253;BME280;63171;50.520;30.486;2023-03-03T04:40:27;99910.44;;;3.85;85.46